Time;durP1;ratioP1;P1;durP2;ratioP2;P2;SDS_P1;SDS_P2;PMS_P1;PMS_P2;Temp;Humidity;BMP_temperature;BMP_pressure;BME280_temperature;BME280_humidity;BME280_pressure;Samples;Min_cycle;Max_cycle;Signal;HPM_P1;HPM_P2
2024/02/18 00:00:06;;;;;;;78.88;33.85;;;;;;;6.20;76.68;101113.84;4997917;28;20042;-64
2024/02/18 00:02:34;;;;;;;64.57;30.65;;;;;;;6.06;78.86;101113.91;4997344;28;20034;-62
2024/02/18 00:05:00;;;;;;;42.33;21.38;;;;;;;6.07;78.67;101113.78;4997073;28;20034;-62
2024/02/18 00:07:26;;;;;;;43.30;25.70;;;;;;;5.90;79.44;101114.03;4997407;28;20045;-63
2024/02/18 00:09:53;;;;;;;45.17;25.63;;;;;;;5.86;80.67;101120.41;4996936;28;20340;-63
2024/02/18 00:12:18;;;;;;;58.72;38.13;;;;;;;5.83;80.42;101120.59;4996710;28;20054;-64
2024/02/18 00:14:44;;;;;;;64.00;44.90;;;;;;;5.86;80.21;101117.78;4997002;28;20074;-62
2024/02/18 00:17:09;;;;;;;40.92;24.75;;;;;;;5.69;81.02;101121.50;4996829;28;20418;-62
2024/02/18 00:19:35;;;;;;;35.20;18.42;;;;;;;5.50;82.44;101118.34;4997502;28;20042;-62
2024/02/18 00:22:00;;;;;;;30.98;17.20;;;;;;;5.24;84.22;101116.47;4996468;28;20038;-62
2024/02/18 00:24:26;;;;;;;28.90;15.40;;;;;;;5.37;83.31;101120.88;4996970;28;20093;-62
2024/02/18 00:26:52;;;;;;;31.15;14.35;;;;;;;5.47;82.93;101112.44;4996875;28;20204;-64
2024/02/18 00:29:18;;;;;;;28.20;14.77;;;;;;;5.60;81.62;101122.06;4996734;28;20043;-64
2024/02/18 00:31:43;;;;;;;30.85;14.65;;;;;;;5.57;81.08;101124.03;4996722;28;20077;-62
2024/02/18 00:34:09;;;;;;;48.38;21.40;;;;;;;5.48;81.50;101098.34;4999090;28;20045;-62
2024/02/18 00:36:34;;;;;;;44.60;18.33;;;;;;;5.43;81.90;101117.03;5000722;28;20377;-62
2024/02/18 00:39:00;;;;;;;60.30;24.20;;;;;;;5.39;81.47;101108.50;5000457;28;20241;-62
2024/02/18 00:41:25;;;;;;;63.78;25.23;;;;;;;5.47;81.21;101107.16;5000134;28;20048;-62
2024/02/18 00:43:50;;;;;;;60.47;24.50;;;;;;;5.61;80.61;101108.00;5000199;28;20044;-63
2024/02/18 00:46:16;;;;;;;59.80;24.77;;;;;;;5.74;79.37;101101.00;5000933;28;20030;-63
2024/02/18 00:48:41;;;;;;;37.03;17.58;;;;;;;5.78;76.22;101107.75;5001286;28;20224;-62
2024/02/18 00:51:07;;;;;;;35.97;18.13;;;;;;;5.82;76.00;101102.31;5001440;28;20612;-62
2024/02/18 00:53:32;;;;;;;32.78;16.13;;;;;;;5.80;77.60;101106.81;5001448;28;20054;-63
2024/02/18 00:55:58;;;;;;;54.22;21.38;;;;;;;5.87;77.21;101100.22;5000926;28;20026;-63
2024/02/18 00:58:23;;;;;;;34.22;15.93;;;;;;;5.82;75.14;101100.53;5000644;28;20050;-63
2024/02/18 01:00:49;;;;;;;33.45;16.42;;;;;;;5.64;72.06;101102.53;5000726;28;20034;-62
2024/02/18 01:03:14;;;;;;;30.27;14.85;;;;;;;5.59;72.54;101103.78;5000884;28;20070;-61
2024/02/18 01:05:40;;;;;;;35.83;16.30;;;;;;;5.37;73.04;101094.63;5000681;28;20315;-62
2024/02/18 01:08:05;;;;;;;34.10;16.48;;;;;;;5.54;74.25;101092.72;5000892;28;20367;-61
2024/02/18 01:10:31;;;;;;;35.25;16.60;;;;;;;5.57;73.11;101101.25;5000449;28;20030;-63
2024/02/18 01:12:56;;;;;;;33.20;16.00;;;;;;;5.58;70.93;101102.94;5000252;28;20227;-62
2024/02/18 01:15:22;;;;;;;32.17;15.98;;;;;;;5.52;70.76;101099.84;5000389;28;20336;-62
2024/02/18 01:17:47;;;;;;;29.83;14.50;;;;;;;5.48;71.05;101096.56;5000441;28;20042;-62
2024/02/18 01:20:12;;;;;;;32.88;15.07;;;;;;;5.54;71.21;101098.81;5000989;28;20046;-64
2024/02/18 01:22:38;;;;;;;104.68;37.10;;;;;;;5.54;73.67;101093.56;5000714;28;20093;-63
2024/02/18 01:25:04;;;;;;;114.68;41.40;;;;;;;5.57;74.97;101085.47;5000864;28;20039;-62
2024/02/18 01:27:29;;;;;;;30.65;15.98;;;;;;;5.58;75.63;101079.28;5000408;28;20038;-62
2024/02/18 01:29:54;;;;;;;30.38;14.60;;;;;;;5.64;74.94;101076.25;5000494;28;20328;-62
2024/02/18 01:32:20;;;;;;;26.85;14.90;;;;;;;5.72;74.26;101071.34;5000337;28;20289;-63
2024/02/18 01:34:45;;;;;;;31.13;15.18;;;;;;;5.76;73.10;101075.47;5000385;28;20034;-62
2024/02/18 01:37:11;;;;;;;22.98;13.75;;;;;;;5.73;71.96;101075.66;5000086;28;20105;-63
2024/02/18 01:39:36;;;;;;;26.00;13.20;;;;;;;5.39;71.09;101073.50;4999887;28;20324;-64
2024/02/18 01:42:02;;;;;;;25.85;13.57;;;;;;;5.09;70.10;101066.56;5000033;28;20046;-62
2024/02/18 01:44:28;;;;;;;22.30;11.98;;;;;;;4.94;72.47;101075.38;5000285;28;20077;-62
2024/02/18 01:46:53;;;;;;;26.20;14.13;;;;;;;5.01;74.11;101065.34;4999941;28;20117;-62
2024/02/18 01:49:19;;;;;;;26.50;12.80;;;;;;;5.07;74.06;101072.84;5000250;28;20081;-63
2024/02/18 01:51:45;;;;;;;25.55;12.55;;;;;;;5.03;72.46;101068.72;4999004;28;20038;-63
2024/02/18 01:54:11;;;;;;;26.20;12.85;;;;;;;5.13;72.04;101072.47;4999026;28;20038;-62
2024/02/18 01:56:38;;;;;;;31.20;13.52;;;;;;;5.22;72.44;101065.84;4999448;28;20038;-62
2024/02/18 01:59:04;;;;;;;26.83;14.63;;;;;;;5.18;73.80;101065.16;4999993;28;20022;-62
2024/02/18 02:01:30;;;;;;;22.63;12.07;;;;;;;5.20;71.13;101067.69;4999889;28;20042;-62
2024/02/18 02:03:56;;;;;;;23.52;13.30;;;;;;;5.02;71.13;101067.88;4999317;28;20034;-62
2024/02/18 02:06:22;;;;;;;21.70;11.88;;;;;;;5.03;71.48;101061.69;4999593;28;20280;-63
2024/02/18 02:08:49;;;;;;;24.90;13.07;;;;;;;5.04;70.65;101065.16;4999303;28;20041;-63
2024/02/18 02:11:15;;;;;;;27.45;12.55;;;;;;;5.04;70.49;101057.28;4999640;28;20046;-63
2024/02/18 02:13:40;;;;;;;22.85;12.32;;;;;;;5.00;70.36;101056.63;4999740;28;20045;-61
2024/02/18 02:16:06;;;;;;;28.30;13.25;;;;;;;4.95;69.13;101055.22;4999407;28;20221;-62
2024/02/18 02:18:33;;;;;;;26.30;13.48;;;;;;;4.88;71.28;101051.28;4999381;28;20097;-63
2024/02/18 02:20:58;;;;;;;25.45;13.32;;;;;;;4.71;67.44;101047.06;4999392;28;20444;-63
2024/02/18 02:23:24;;;;;;;29.05;14.35;;;;;;;4.60;68.46;101036.38;4999497;28;20080;-61
2024/02/18 02:25:51;;;;;;;29.40;14.85;;;;;;;4.52;69.79;101049.13;4999864;28;20027;-62
2024/02/18 02:28:22;;;;;;;35.33;16.38;;;;;;;4.46;70.04;101048.56;4999422;28;20048;-62
2024/02/18 02:30:49;;;;;;;37.40;17.88;;;;;;;4.42;72.39;101044.41;4999344;28;20042;-62
2024/02/18 02:33:16;;;;;;;26.65;15.23;;;;;;;4.47;74.91;101046.78;4999002;28;20050;-62
2024/02/18 02:35:42;;;;;;;40.45;19.33;;;;;;;4.58;74.92;101048.75;4999065;28;20034;-61
2024/02/18 02:38:08;;;;;;;34.58;19.63;;;;;;;4.60;75.55;101046.88;4998674;28;20427;-62
2024/02/18 02:40:33;;;;;;;49.45;21.75;;;;;;;4.62;75.22;101058.13;4999210;28;20045;-64
2024/02/18 02:42:59;;;;;;;52.25;24.15;;;;;;;4.61;74.84;101051.19;4998411;28;20034;-64
2024/02/18 02:45:24;;;;;;;41.85;19.05;;;;;;;4.56;74.75;101061.97;4999487;28;20045;-62
2024/02/18 02:47:51;;;;;;;44.95;19.05;;;;;;;4.42;75.64;101062.78;4998949;28;20510;-62
2024/02/18 02:50:17;;;;;;;38.72;20.00;;;;;;;4.41;76.26;101058.47;4998664;28;20038;-63
2024/02/18 02:52:42;;;;;;;41.08;18.55;;;;;;;4.58;75.59;101060.09;4998616;28;20251;-63
2024/02/18 02:55:08;;;;;;;37.05;18.50;;;;;;;4.67;75.32;101064.78;4999775;28;20050;-62
2024/02/18 02:57:34;;;;;;;48.63;23.90;;;;;;;4.73;75.32;101055.69;4997825;28;20076;-62
2024/02/18 03:00:00;;;;;;;44.15;20.90;;;;;;;4.79;74.71;101055.31;4999047;28;20066;-62
2024/02/18 03:02:25;;;;;;;38.03;18.50;;;;;;;4.88;73.19;101067.03;4998465;28;20327;-62
2024/02/18 03:04:51;;;;;;;36.80;18.30;;;;;;;4.74;72.45;101068.72;4998915;28;20046;-63
2024/02/18 03:07:16;;;;;;;40.90;18.67;;;;;;;4.77;73.65;101065.91;4999250;28;20032;-63
2024/02/18 03:09:41;;;;;;;42.15;20.85;;;;;;;4.77;73.58;101070.31;4999091;28;20339;-62
2024/02/18 03:12:07;;;;;;;42.75;21.10;;;;;;;4.76;73.47;101051.09;4998379;28;20056;-61
2024/02/18 03:14:33;;;;;;;41.92;21.58;;;;;;;4.74;74.35;101058.22;4998305;28;20281;-62
2024/02/18 03:16:59;;;;;;;46.30;25.40;;;;;;;4.78;74.82;101069.38;4997752;28;20232;-63
2024/02/18 03:19:24;;;;;;;55.25;26.27;;;;;;;4.77;74.20;101065.06;4998558;28;20224;-63
2024/02/18 03:21:49;;;;;;;75.10;37.40;;;;;;;4.77;74.62;101065.06;4998780;28;20034;-62
2024/02/18 03:24:15;;;;;;;122.05;60.30;;;;;;;4.82;74.32;101047.28;4998654;28;20050;-62
2024/02/18 03:26:40;;;;;;;146.20;66.88;;;;;;;4.82;74.21;101055.13;4998622;28;20049;-62
2024/02/18 03:29:08;;;;;;;124.20;56.35;;;;;;;4.79;74.05;101055.31;4998626;28;20046;-62
2024/02/18 03:31:34;;;;;;;150.88;65.10;;;;;;;4.88;73.68;101069.66;4998511;28;20043;-63
2024/02/18 03:33:59;;;;;;;146.98;63.95;;;;;;;4.77;73.89;101071.16;4997893;28;20133;-63
2024/02/18 03:36:25;;;;;;;99.75;50.35;;;;;;;4.75;72.31;101067.78;4998230;28;20041;-62
2024/02/18 03:38:51;;;;;;;69.85;35.90;;;;;;;4.68;69.05;101068.25;4998167;28;20042;-62
2024/02/18 03:41:16;;;;;;;53.17;24.95;;;;;;;4.58;67.10;101072.34;4998175;28;20307;-64
2024/02/18 03:43:42;;;;;;;61.83;28.20;;;;;;;4.36;65.77;101075.41;4998197;28;20370;-63
2024/02/18 03:46:08;;;;;;;69.25;31.02;;;;;;;4.40;68.29;101064.66;4998424;28;20263;-62
2024/02/18 03:48:34;;;;;;;60.70;26.35;;;;;;;4.41;67.54;101074.19;4998658;28;20038;-62
2024/02/18 03:50:59;;;;;;;45.95;21.88;;;;;;;4.28;67.51;101072.38;4998468;28;20339;-62
2024/02/18 03:53:25;;;;;;;47.50;26.38;;;;;;;4.24;68.42;101073.50;4998143;28;20050;-62
2024/02/18 03:55:50;;;;;;;57.47;29.75;;;;;;;4.28;71.93;101081.09;4997981;28;20026;-63
2024/02/18 03:58:15;;;;;;;50.25;29.63;;;;;;;4.33;72.97;101080.84;4998734;28;20316;-62
2024/02/18 04:00:45;;;;;;;41.67;23.45;;;;;;;4.31;73.64;101080.91;4998087;28;20100;-62
2024/02/18 04:03:12;;;;;;;32.83;16.52;;;;;;;4.23;74.12;101085.78;4998369;28;20349;-62
2024/02/18 04:05:37;;;;;;;30.60;15.27;;;;;;;4.07;74.87;101079.69;4998186;28;20026;-63
2024/02/18 04:08:03;;;;;;;38.08;15.52;;;;;;;3.95;75.81;101083.84;4998931;28;20326;-64
2024/02/18 04:10:28;;;;;;;30.95;14.15;;;;;;;3.96;76.26;101087.31;5001569;28;20274;-63
2024/02/18 04:12:54;;;;;;;28.23;13.23;;;;;;;3.93;76.31;101082.25;5002152;28;20056;-62
2024/02/18 04:15:20;;;;;;;31.73;14.82;;;;;;;4.04;76.21;101085.94;5001426;28;20260;-62
2024/02/18 04:17:46;;;;;;;28.83;14.68;;;;;;;4.12;75.66;101078.50;5002191;28;20066;-62
2024/02/18 04:20:11;;;;;;;28.65;13.43;;;;;;;4.18;75.63;101085.19;5001763;28;20059;-62
2024/02/18 04:22:37;;;;;;;28.58;14.95;;;;;;;4.28;75.24;101088.97;5001835;28;20081;-64
2024/02/18 04:25:02;;;;;;;59.90;28.38;;;;;;;4.35;73.78;101082.44;5002008;28;20131;-63
2024/02/18 04:27:28;;;;;;;66.18;30.17;;;;;;;4.37;72.23;101077.94;5002008;28;20069;-62
2024/02/18 04:29:53;;;;;;;49.45;27.35;;;;;;;4.38;70.66;101078.78;5001498;28;20050;-62
2024/02/18 04:32:19;;;;;;;48.53;29.30;;;;;;;4.34;71.51;101078.13;5001637;28;20141;-62
2024/02/18 04:34:45;;;;;;;43.63;23.92;;;;;;;4.38;71.63;101078.78;5001974;28;20068;-64
2024/02/18 04:37:10;;;;;;;51.22;28.40;;;;;;;4.29;69.95;101090.66;5001561;28;20178;-63
2024/02/18 04:39:36;;;;;;;56.95;32.78;;;;;;;4.23;71.43;101088.38;5002031;28;20045;-62
2024/02/18 04:42:01;;;;;;;74.22;35.47;;;;;;;4.23;71.52;101087.53;5002028;28;20030;-62
2024/02/18 04:44:27;;;;;;;75.35;36.55;;;;;;;4.09;72.85;101083.91;5001399;28;20050;-62
2024/02/18 04:46:52;;;;;;;68.45;31.92;;;;;;;4.16;73.76;101087.03;5001204;28;20328;-63
2024/02/18 04:49:18;;;;;;;69.65;32.10;;;;;;;4.25;74.41;101083.06;5001207;28;20154;-63
2024/02/18 04:51:43;;;;;;;78.68;37.47;;;;;;;4.20;73.37;101077.25;5001709;28;20042;-62
2024/02/18 04:54:09;;;;;;;78.50;37.95;;;;;;;3.91;74.33;101071.84;5001682;28;20053;-62
2024/02/18 04:56:35;;;;;;;65.70;30.02;;;;;;;3.69;76.02;101077.47;5001422;28;20030;-62
2024/02/18 04:59:01;;;;;;;43.25;21.52;;;;;;;3.65;76.58;101082.97;5001227;28;20324;-62
2024/02/18 05:01:26;;;;;;;37.47;16.08;;;;;;;3.61;77.75;101060.50;5000948;28;20037;-62
2024/02/18 05:03:53;;;;;;;32.15;14.27;;;;;;;3.71;78.14;101072.13;5001415;28;20190;-63
2024/02/18 05:06:18;;;;;;;31.08;15.32;;;;;;;3.75;77.79;101074.50;5001565;28;20034;-64
2024/02/18 05:08:44;;;;;;;43.78;19.00;;;;;;;3.67;77.34;101073.25;5000924;28;20066;-61
2024/02/18 05:11:09;;;;;;;48.70;21.42;;;;;;;3.74;73.24;101075.44;5000825;28;20035;-62
2024/02/18 05:13:34;;;;;;;55.42;24.30;;;;;;;3.64;75.53;101069.03;5000994;28;20038;-62
2024/02/18 05:16:00;;;;;;;47.55;23.35;;;;;;;3.71;77.56;101064.28;5000600;28;20038;-64
2024/02/18 05:18:25;;;;;;;46.35;20.77;;;;;;;3.84;76.89;101071.34;5000517;28;20268;-62
2024/02/18 05:20:51;;;;;;;35.97;20.05;;;;;;;3.74;77.42;101069.34;4999518;28;20049;-62
2024/02/18 05:23:17;;;;;;;35.42;17.02;;;;;;;3.79;77.54;101067.31;5000074;28;20044;-62
2024/02/18 05:25:44;;;;;;;56.13;26.45;;;;;;;3.87;77.24;101074.75;5000300;28;20069;-63
2024/02/18 05:28:09;;;;;;;40.83;20.10;;;;;;;3.91;73.95;101073.63;5000511;28;20078;-62
2024/02/18 05:30:35;;;;;;;39.47;19.23;;;;;;;3.88;70.02;101074.66;5000106;28;20042;-62
2024/02/18 05:33:02;;;;;;;43.10;19.50;;;;;;;3.94;71.22;101079.53;5000164;28;20032;-63
2024/02/18 05:35:27;;;;;;;40.53;18.83;;;;;;;3.97;70.81;101089.00;5000359;28;20088;-64
2024/02/18 05:37:53;;;;;;;43.13;19.67;;;;;;;3.99;70.06;101087.16;5000467;28;20034;-62
2024/02/18 05:40:18;;;;;;;44.83;21.90;;;;;;;4.02;70.61;101089.59;5001066;28;20035;-62
2024/02/18 05:42:44;;;;;;;47.00;22.38;;;;;;;3.92;72.27;101089.28;5000925;28;20093;-62
2024/02/18 05:45:10;;;;;;;42.65;22.25;;;;;;;4.03;73.40;101094.75;4999627;28;20244;-63
2024/02/18 05:47:36;;;;;;;49.15;22.02;;;;;;;4.18;73.87;101084.34;5000407;28;20041;-62
2024/02/18 05:50:01;;;;;;;56.30;26.00;;;;;;;4.32;74.59;101097.50;5000836;28;20045;-62
2024/02/18 05:52:26;;;;;;;56.53;27.98;;;;;;;4.25;75.77;101101.41;5000161;28;20042;-62
2024/02/18 05:54:52;;;;;;;59.38;28.90;;;;;;;4.35;73.95;101098.16;4999884;28;20053;-63
2024/02/18 05:57:17;;;;;;;56.83;28.30;;;;;;;4.35;73.36;101098.16;4999649;28;20039;-62
2024/02/18 05:59:43;;;;;;;55.78;29.23;;;;;;;4.22;73.44;101091.09;4999756;28;20215;-62
2024/02/18 06:02:08;;;;;;;43.95;18.58;;;;;;;3.98;73.31;101104.66;4999706;28;20053;-62
2024/02/18 06:04:34;;;;;;;61.17;24.08;;;;;;;3.90;74.59;101106.84;5000248;28;20053;-64
2024/02/18 06:06:59;;;;;;;56.95;25.05;;;;;;;4.05;75.06;101100.75;4999879;28;20022;-62
2024/02/18 06:09:25;;;;;;;36.95;17.52;;;;;;;3.68;76.54;101101.97;5000290;28;20061;-62
2024/02/18 06:11:51;;;;;;;37.08;16.73;;;;;;;3.79;77.22;101102.22;4999645;28;20022;-61
2024/02/18 06:14:17;;;;;;;38.92;15.55;;;;;;;3.70;78.31;101101.88;5000205;28;20046;-62
2024/02/18 06:16:43;;;;;;;35.30;17.27;;;;;;;3.79;78.82;101106.63;4999876;28;20291;-62
2024/02/18 06:19:08;;;;;;;36.58;15.85;;;;;;;3.88;78.67;101113.13;4999898;28;20049;-63
2024/02/18 06:21:34;;;;;;;26.77;14.30;;;;;;;4.09;78.49;101107.50;4999158;28;20273;-62
2024/02/18 06:24:01;;;;;;;36.10;14.07;;;;;;;4.03;78.96;101113.09;4999723;28;20034;-62
2024/02/18 06:26:27;;;;;;;33.72;14.65;;;;;;;3.98;78.59;101117.75;4999654;28;20030;-62
2024/02/18 06:28:52;;;;;;;26.98;14.45;;;;;;;3.59;81.51;101117.34;4999987;28;20307;-62
2024/02/18 06:31:18;;;;;;;32.42;15.25;;;;;;;3.71;81.87;101128.00;4999890;28;20036;-63
2024/02/18 06:33:46;;;;;;;27.73;14.40;;;;;;;4.03;81.41;101122.72;4999660;28;20048;-62
2024/02/18 06:36:12;;;;;;;36.88;16.08;;;;;;;4.26;80.30;101121.44;4999423;28;20029;-64
2024/02/18 06:38:44;;;;;;;33.38;14.55;;;;;;;4.42;79.97;101124.88;4999457;28;20053;-64
2024/02/18 06:41:10;;;;;;;26.75;14.85;;;;;;;4.59;78.98;101116.88;4999767;28;20101;-63
2024/02/18 06:43:35;;;;;;;37.05;15.45;;;;;;;4.76;78.58;101121.97;4999807;28;20100;-62
2024/02/18 06:46:01;;;;;;;39.17;17.95;;;;;;;4.93;77.50;101128.81;4998623;28;20320;-62
2024/02/18 06:48:27;;;;;;;39.67;21.73;;;;;;;5.11;77.06;101126.88;4999050;28;20042;-63
2024/02/18 06:50:52;;;;;;;45.15;23.95;;;;;;;5.19;77.50;101129.03;4999032;28;20076;-62
2024/02/18 06:53:18;;;;;;;36.40;19.52;;;;;;;5.19;78.04;101127.25;4998554;28;20042;-63
2024/02/18 06:55:44;;;;;;;41.28;18.45;;;;;;;5.46;77.54;101132.59;4998891;28;20042;-62
2024/02/18 06:58:11;;;;;;;38.42;19.90;;;;;;;5.69;77.06;101129.38;4998978;28;20070;-62
2024/02/18 07:00:36;;;;;;;38.80;20.60;;;;;;;5.86;76.04;101135.34;4998585;28;20062;-64
2024/02/18 07:03:03;;;;;;;38.45;19.15;;;;;;;5.85;76.41;101129.25;4998950;28;20038;-64
2024/02/18 07:05:29;;;;;;;41.25;19.67;;;;;;;5.77;75.86;101123.63;4998869;28;20030;-62
2024/02/18 07:07:54;;;;;;;37.42;19.65;;;;;;;5.80;76.94;101133.09;4998527;28;20026;-62
2024/02/18 07:10:20;;;;;;;38.28;19.75;;;;;;;5.89;76.22;101120.25;4999070;28;20030;-62
2024/02/18 07:12:45;;;;;;;33.17;18.95;;;;;;;6.19;75.54;101127.09;4999214;28;20041;-62
2024/02/18 07:15:10;;;;;;;43.78;20.92;;;;;;;6.36;75.93;101117.19;4998660;28;20050;-63
2024/02/18 07:17:36;;;;;;;45.72;21.20;;;;;;;6.42;76.19;101118.56;4998342;28;20032;-64
2024/02/18 07:20:02;;;;;;;44.33;19.48;;;;;;;6.61;76.07;101124.28;4997875;28;20039;-62
2024/02/18 07:22:27;;;;;;;38.83;18.88;;;;;;;6.85;75.35;101121.78;4998377;28;20030;-62
2024/02/18 07:24:53;;;;;;;39.70;21.00;;;;;;;6.96;74.88;101116.59;4997454;28;20081;-62
2024/02/18 07:27:18;;;;;;;36.17;18.98;;;;;;;7.19;75.22;101116.81;4996282;28;20058;-62
2024/02/18 07:29:43;;;;;;;40.22;19.98;;;;;;;7.36;74.25;101117.34;4996275;28;20271;-63
2024/02/18 07:32:09;;;;;;;38.60;19.80;;;;;;;7.51;73.86;101120.69;4996346;28;20038;-62
2024/02/18 07:34:34;;;;;;;38.97;19.15;;;;;;;7.60;72.95;101122.66;4997068;28;20045;-62
2024/02/18 07:37:00;;;;;;;36.80;19.15;;;;;;;7.73;71.95;101119.16;4996008;28;20092;-62
2024/02/18 07:39:26;;;;;;;39.17;19.30;;;;;;;7.79;71.71;101113.44;4996258;28;20038;-63
2024/02/18 07:41:53;;;;;;;38.22;19.08;;;;;;;7.72;72.80;101114.84;4995724;28;20351;-62
2024/02/18 07:44:18;;;;;;;38.13;19.30;;;;;;;7.97;72.77;101112.94;4999378;28;20046;-62
2024/02/18 07:46:44;;;;;;;40.97;19.02;;;;;;;8.18;72.07;101117.59;5000027;28;20068;-62
2024/02/18 07:49:10;;;;;;;38.63;17.95;;;;;;;8.27;71.53;101116.91;5001607;28;20050;-62
2024/02/18 07:51:36;;;;;;;36.38;19.40;;;;;;;8.36;71.29;101111.03;5000733;28;20038;-63
2024/02/18 07:54:01;;;;;;;37.15;19.55;;;;;;;8.48;71.23;101117.19;5001471;28;20424;-62
2024/02/18 07:56:27;;;;;;;38.42;19.30;;;;;;;8.57;71.23;101116.47;4999305;28;20523;-62
2024/02/18 07:58:53;;;;;;;40.42;21.08;;;;;;;8.78;70.92;101114.00;5000123;28;20069;-62
2024/02/18 08:01:18;;;;;;;40.67;20.00;;;;;;;8.78;71.34;101103.44;5000207;28;20038;-62
2024/02/18 08:03:44;;;;;;;38.65;18.60;;;;;;;8.93;70.91;101111.03;5000373;28;20248;-63
2024/02/18 08:06:09;;;;;;;48.08;19.17;;;;;;;8.98;70.72;101108.03;5001403;28;20042;-62
2024/02/18 08:08:35;;;;;;;37.95;17.83;;;;;;;9.11;70.82;101108.78;5000917;28;20072;-62
2024/02/18 08:11:00;;;;;;;38.83;17.50;;;;;;;9.21;70.47;101099.16;5002430;28;20034;-62
2024/02/18 08:13:26;;;;;;;38.30;18.58;;;;;;;9.43;69.99;101103.63;5001220;28;20450;-62
2024/02/18 08:15:51;;;;;;;34.38;17.60;;;;;;;9.61;69.70;101101.31;5002154;28;20050;-63
2024/02/18 08:18:17;;;;;;;38.78;19.50;;;;;;;9.54;69.32;101100.97;5000302;28;20039;-62
2024/02/18 08:20:44;;;;;;;36.50;18.17;;;;;;;9.71;69.11;101090.84;5002116;28;20034;-62
2024/02/18 08:23:10;;;;;;;32.90;18.45;;;;;;;9.68;68.72;101091.09;4999608;28;20093;-63
2024/02/18 08:25:36;;;;;;;35.90;19.85;;;;;;;9.63;68.63;101085.31;5000064;28;20030;-64
2024/02/18 08:28:01;;;;;;;43.40;20.60;;;;;;;9.71;69.34;101082.91;5001306;28;20315;-63
2024/02/18 08:30:27;;;;;;;38.30;19.45;;;;;;;9.85;69.36;101078.19;5001578;28;20038;-62
2024/02/18 08:32:52;;;;;;;36.35;19.83;;;;;;;9.76;69.30;101080.72;5001929;28;20026;-62
2024/02/18 08:35:20;;;;;;;35.55;19.02;;;;;;;9.82;68.51;101091.66;5002569;28;20232;-62
2024/02/18 08:37:49;;;;;;;36.53;19.33;;;;;;;9.99;68.16;101086.78;5000871;28;20387;-64
2024/02/18 08:40:15;;;;;;;30.40;17.08;;;;;;;10.10;68.41;101084.94;5001222;28;20048;-64
2024/02/18 08:42:41;;;;;;;35.58;17.20;;;;;;;10.09;68.45;101088.56;5001382;28;20092;-62
2024/02/18 08:45:08;;;;;;;37.00;17.92;;;;;;;10.11;68.41;101077.84;5001897;28;20320;-62
2024/02/18 08:47:34;;;;;;;38.30;18.95;;;;;;;10.29;68.54;101072.88;5000764;28;20030;-62
2024/02/18 08:49:59;;;;;;;27.00;14.75;;;;;;;10.47;68.31;101072.19;5000294;28;20113;-63
2024/02/18 08:52:25;;;;;;;25.95;14.50;;;;;;;10.52;67.08;101071.81;5000380;28;20041;-64
2024/02/18 08:54:50;;;;;;;27.25;14.57;;;;;;;10.63;67.73;101071.75;4999108;28;20049;-62
2024/02/18 08:57:16;;;;;;;29.90;14.45;;;;;;;10.52;68.30;101077.09;5000751;28;20049;-62
2024/02/18 08:59:44;;;;;;;27.90;14.52;;;;;;;10.71;67.21;101071.09;5001263;28;20046;-62
2024/02/18 09:02:10;;;;;;;26.40;14.63;;;;;;;10.80;66.80;101065.00;5000761;28;20050;-63
2024/02/18 09:04:35;;;;;;;23.45;13.27;;;;;;;10.80;66.44;101065.84;5001526;28;20065;-63
2024/02/18 09:07:01;;;;;;;29.48;15.82;;;;;;;10.91;66.56;101062.28;5001520;28;20097;-62
2024/02/18 09:09:27;;;;;;;25.95;14.48;;;;;;;11.00;65.70;101064.13;5001042;28;20038;-63
2024/02/18 09:11:52;;;;;;;27.83;14.75;;;;;;;11.05;65.67;101063.72;5001041;28;20054;-63
2024/02/18 09:14:18;;;;;;;33.03;16.38;;;;;;;11.03;65.91;101065.69;5001041;28;20053;-63
2024/02/18 09:16:43;;;;;;;28.33;15.60;;;;;;;11.12;66.71;101054.28;5000376;28;20050;-60
2024/02/18 09:19:09;;;;;;;31.15;16.52;;;;;;;11.32;66.70;101057.84;5001201;28;20058;-62
2024/02/18 09:21:34;;;;;;;25.05;12.88;;;;;;;11.35;64.68;101050.44;5000864;28;20232;-60
2024/02/18 09:24:00;;;;;;;25.48;12.70;;;;;;;11.39;64.49;101059.81;5000336;28;20053;-63
2024/02/18 09:26:25;;;;;;;24.90;13.32;;;;;;;11.43;64.20;101047.13;5000338;28;20034;-62
2024/02/18 09:28:51;;;;;;;28.42;14.48;;;;;;;11.59;64.10;101047.47;4999677;28;20038;-60
2024/02/18 09:31:17;;;;;;;31.50;15.68;;;;;;;11.68;65.83;101046.63;5000484;28;20042;-61
2024/02/18 09:33:43;;;;;;;18.42;12.20;;;;;;;11.81;61.81;101049.06;5000742;28;20042;-61
2024/02/18 09:36:08;;;;;;;20.63;11.75;;;;;;;11.91;59.18;101041.94;5000219;28;20390;-60
2024/02/18 09:38:34;;;;;;;21.17;12.65;;;;;;;12.00;59.75;101037.63;5000347;28;20069;-64
2024/02/18 09:41:00;;;;;;;20.58;12.25;;;;;;;12.03;58.68;101032.88;5000623;28;20316;-62
2024/02/18 09:43:27;;;;;;;22.08;12.52;;;;;;;12.14;58.84;101034.53;5000880;28;20033;-63
2024/02/18 09:45:55;;;;;;;26.45;12.73;;;;;;;12.26;57.38;101029.91;5000690;28;20065;-61
2024/02/18 09:48:24;;;;;;;17.45;11.65;;;;;;;12.37;58.05;101029.75;5000451;28;20220;-63
2024/02/18 09:50:49;;;;;;;24.75;12.95;;;;;;;12.52;58.14;101025.69;5000794;28;20113;-62
2024/02/18 09:53:16;;;;;;;22.65;12.60;;;;;;;12.60;57.14;101019.66;4999662;28;20049;-61
2024/02/18 09:55:43;;;;;;;23.13;13.25;;;;;;;12.58;57.22;101011.84;4999870;28;20054;-61
2024/02/18 09:58:10;;;;;;;24.25;16.08;;;;;;;12.73;57.42;101014.88;4999979;28;20046;-61
2024/02/18 10:00:38;;;;;;;22.48;14.23;;;;;;;12.69;58.09;101002.84;4999868;28;20264;-61
2024/02/18 10:03:04;;;;;;;21.50;12.05;;;;;;;12.67;56.45;101002.16;5000020;28;20045;-61
2024/02/18 10:05:34;;;;;;;18.92;12.20;;;;;;;12.68;57.94;100990.56;5000137;28;20038;-63
2024/02/18 10:08:02;;;;;;;19.92;12.48;;;;;;;12.79;57.46;100985.06;4999512;28;20379;-63
2024/02/18 10:10:34;;;;;;;18.23;12.00;;;;;;;12.86;57.38;100986.16;5000087;28;20050;-62
2024/02/18 10:13:04;;;;;;;19.23;12.52;;;;;;;12.85;57.08;100978.31;4999532;28;20048;-62
2024/02/18 10:15:33;;;;;;;18.73;11.95;;;;;;;12.81;57.28;100972.47;4999704;28;20046;-60
2024/02/18 10:18:00;;;;;;;23.00;12.43;;;;;;;12.78;56.64;100973.59;4999924;28;20101;-60
2024/02/18 10:20:30;;;;;;;18.73;11.93;;;;;;;12.83;56.24;100973.16;4999935;28;20030;-62
2024/02/18 10:22:55;;;;;;;18.48;11.50;;;;;;;12.78;56.35;100964.78;4999342;28;20046;-61
2024/02/18 10:25:21;;;;;;;19.92;12.13;;;;;;;12.89;56.46;100963.75;4999985;28;20070;-62
2024/02/18 10:27:47;;;;;;;17.63;11.55;;;;;;;12.91;55.81;100970.59;4999458;28;20045;-62
2024/02/18 10:30:13;;;;;;;25.75;13.85;;;;;;;12.88;56.07;100968.22;4999687;28;20117;-63
2024/02/18 10:32:39;;;;;;;18.02;11.35;;;;;;;12.84;55.87;100956.22;4999405;28;20027;-62
2024/02/18 10:35:05;;;;;;;22.42;13.32;;;;;;;12.94;56.31;100956.16;4999215;28;20042;-63
2024/02/18 10:37:38;;;;;;;22.85;12.25;;;;;;;13.00;57.13;100958.22;4998955;28;20101;-62
2024/02/18 10:40:15;;;;;;;24.17;11.68;;;;;;;13.15;55.85;100950.59;5000010;28;20280;-62
2024/02/18 10:42:51;;;;;;;20.42;11.45;;;;;;;13.21;55.30;100953.53;4987560;28;20061;-62
2024/02/18 10:45:18;;;;;;;18.70;11.48;;;;;;;13.18;54.93;100953.81;4999103;28;20168;-62
2024/02/18 10:47:48;;;;;;;19.75;12.75;;;;;;;13.10;54.57;100953.69;4999920;28;20041;-61
2024/02/18 10:50:17;;;;;;;17.95;11.60;;;;;;;13.11;55.12;100950.88;4999531;28;20235;-61
2024/02/18 10:52:48;;;;;;;16.88;11.93;;;;;;;13.15;55.59;100943.44;4998856;28;20034;-63
2024/02/18 10:55:32;;;;;;;21.02;11.85;;;;;;;13.08;55.78;100942.38;4998864;28;20466;-63
2024/02/18 10:58:05;;;;;;;;;;;;;;;13.11;54.29;100944.75;4999519;28;20042;-62
2024/02/18 11:00:36;;;;;;;20.60;10.90;;;;;;;13.03;54.33;100940.16;4987340;28;19918;-61
2024/02/18 11:03:11;;;;;;;16.63;10.43;;;;;;;13.02;53.92;100940.31;4998822;28;20243;-62
2024/02/18 11:05:38;;;;;;;15.70;10.07;;;;;;;13.11;54.64;100934.94;4999389;28;20034;-61
2024/02/18 11:08:07;;;;;;;19.60;10.45;;;;;;;13.20;53.83;100929.75;4998825;28;20076;-62